CRA017 SKBQ-TNCC
Flight info
| Callsign | CRA017 |
|---|---|
| Flight time | N/A |
| Altitude | 30000 |
| Route | STA4C STA UL220 DATOR DATO1B |
| Aircraft | PMDG/M-V/N |
Departure
| Time | 2026-05-09 03:28 |
|---|---|
| Airport | Ernesto Cortissoz International Airport (SKBQ) |
Arrival
| Time | N/A |
|---|---|
| Airport | Hato International Airport (TNCC) |
| Time | Latitude | Longitude | Altitude | Speed | Heading |
|---|---|---|---|---|---|
| 2026-05-09 03:08 | 10.88911 | -74.77746 | 106 ft | 0 kts | 220° |
| 2026-05-09 03:10 | 10.88909 | -74.77747 | 106 ft | 1 kts | 220° |
| 2026-05-09 03:10 | 10.88903 | -74.77753 | 106 ft | 1 kts | 220° |
| 2026-05-09 03:11 | 10.88897 | -74.77758 | 106 ft | 1 kts | 220° |
| 2026-05-09 03:11 | 10.88892 | -74.77762 | 106 ft | 1 kts | 220° |
| 2026-05-09 03:11 | 10.88886 | -74.77767 | 106 ft | 1 kts | 220° |
| 2026-05-09 03:11 | 10.88881 | -74.77771 | 106 ft | 1 kts | 220° |
| 2026-05-09 03:12 | 10.88877 | -74.77775 | 106 ft | 1 kts | 220° |
| 2026-05-09 03:12 | 10.88867 | -74.77783 | 106 ft | 3 kts | 220° |
| 2026-05-09 03:12 | 10.88844 | -74.77802 | 106 ft | 5 kts | 220° |
| 2026-05-09 03:12 | 10.88811 | -74.77830 | 106 ft | 7 kts | 220° |
| 2026-05-09 03:13 | 10.88753 | -74.77879 | 106 ft | 5 kts | 220° |
| 2026-05-09 03:13 | 10.88727 | -74.77902 | 106 ft | 5 kts | 220° |
| 2026-05-09 03:13 | 10.88701 | -74.77924 | 106 ft | 5 kts | 220° |
| 2026-05-09 03:14 | 10.88676 | -74.77945 | 106 ft | 4 kts | 220° |
| 2026-05-09 03:14 | 10.88653 | -74.77965 | 106 ft | 4 kts | 220° |
| 2026-05-09 03:14 | 10.88630 | -74.77984 | 106 ft | 4 kts | 220° |
| 2026-05-09 03:14 | 10.88609 | -74.78002 | 106 ft | 4 kts | 220° |
| 2026-05-09 03:15 | 10.88588 | -74.78020 | 106 ft | 4 kts | 220° |
| 2026-05-09 03:15 | 10.88569 | -74.78036 | 106 ft | 4 kts | 221° |
| 2026-05-09 03:15 | 10.88553 | -74.78054 | 106 ft | 3 kts | 234° |
| 2026-05-09 03:15 | 10.88542 | -74.78075 | 106 ft | 3 kts | 249° |
| 2026-05-09 03:16 | 10.88537 | -74.78096 | 106 ft | 3 kts | 259° |
| 2026-05-09 03:16 | 10.88534 | -74.78116 | 106 ft | 3 kts | 263° |
| 2026-05-09 03:16 | 10.88532 | -74.78135 | 106 ft | 3 kts | 265° |
| 2026-05-09 03:16 | 10.88530 | -74.78152 | 106 ft | 2 kts | 265° |
| 2026-05-09 03:17 | 10.88529 | -74.78169 | 106 ft | 2 kts | 265° |
| 2026-05-09 03:17 | 10.88528 | -74.78184 | 106 ft | 2 kts | 265° |
| 2026-05-09 03:17 | 10.88526 | -74.78197 | 106 ft | 2 kts | 257° |
| 2026-05-09 03:17 | 10.88521 | -74.78209 | 106 ft | 2 kts | 243° |
| 2026-05-09 03:18 | 10.88515 | -74.78218 | 106 ft | 2 kts | 230° |
| 2026-05-09 03:18 | 10.88501 | -74.78232 | 106 ft | 4 kts | 224° |
| 2026-05-09 03:18 | 10.88470 | -74.78260 | 106 ft | 7 kts | 220° |
| 2026-05-09 03:18 | 10.88436 | -74.78289 | 106 ft | 6 kts | 220° |
| 2026-05-09 03:19 | 10.88402 | -74.78317 | 106 ft | 6 kts | 219° |
| 2026-05-09 03:19 | 10.88369 | -74.78344 | 106 ft | 6 kts | 219° |
| 2026-05-09 03:19 | 10.88338 | -74.78370 | 106 ft | 6 kts | 219° |
| 2026-05-09 03:19 | 10.88307 | -74.78395 | 106 ft | 6 kts | 219° |
| 2026-05-09 03:20 | 10.88277 | -74.78419 | 106 ft | 5 kts | 219° |
| 2026-05-09 03:20 | 10.88249 | -74.78443 | 106 ft | 5 kts | 219° |
| 2026-05-09 03:20 | 10.88221 | -74.78466 | 106 ft | 5 kts | 219° |
| 2026-05-09 03:20 | 10.88195 | -74.78488 | 106 ft | 5 kts | 219° |
| 2026-05-09 03:21 | 10.88170 | -74.78509 | 106 ft | 5 kts | 219° |
| 2026-05-09 03:21 | 10.88145 | -74.78529 | 106 ft | 4 kts | 219° |
| 2026-05-09 03:21 | 10.88122 | -74.78549 | 106 ft | 4 kts | 219° |
| 2026-05-09 03:21 | 10.88100 | -74.78567 | 106 ft | 4 kts | 219° |
| 2026-05-09 03:22 | 10.88079 | -74.78585 | 106 ft | 4 kts | 218° |
| 2026-05-09 03:22 | 10.88058 | -74.78601 | 106 ft | 4 kts | 218° |
| 2026-05-09 03:22 | 10.88039 | -74.78617 | 106 ft | 3 kts | 218° |
| 2026-05-09 03:22 | 10.88020 | -74.78632 | 106 ft | 3 kts | 219° |
| 2026-05-09 03:23 | 10.88003 | -74.78645 | 106 ft | 3 kts | 219° |
| 2026-05-09 03:23 | 10.87987 | -74.78659 | 106 ft | 3 kts | 219° |
| 2026-05-09 03:23 | 10.87972 | -74.78671 | 106 ft | 3 kts | 219° |
| 2026-05-09 03:23 | 10.87958 | -74.78683 | 106 ft | 2 kts | 219° |
| 2026-05-09 03:24 | 10.87945 | -74.78694 | 106 ft | 2 kts | 219° |
| 2026-05-09 03:24 | 10.87933 | -74.78703 | 106 ft | 2 kts | 219° |
| 2026-05-09 03:24 | 10.87922 | -74.78712 | 106 ft | 2 kts | 219° |
| 2026-05-09 03:24 | 10.87912 | -74.78721 | 106 ft | 2 kts | 219° |
| 2026-05-09 03:25 | 10.87895 | -74.78735 | 106 ft | 5 kts | 219° |
| 2026-05-09 03:25 | 10.87864 | -74.78763 | 106 ft | 7 kts | 226° |
| 2026-05-09 03:25 | 10.87842 | -74.78810 | 106 ft | 7 kts | 265° |
| 2026-05-09 03:25 | 10.87858 | -74.78856 | 106 ft | 7 kts | 304° |
| 2026-05-09 03:26 | 10.87884 | -74.78890 | 106 ft | 5 kts | 313° |
| 2026-05-09 03:26 | 10.87909 | -74.78904 | 106 ft | 4 kts | 353° |
| 2026-05-09 03:26 | 10.87933 | -74.78900 | 106 ft | 3 kts | 22° |
| 2026-05-09 03:26 | 10.87948 | -74.78891 | 106 ft | 3 kts | 35° |
| 2026-05-09 03:27 | 10.87961 | -74.78881 | 106 ft | 3 kts | 36° |
| 2026-05-09 03:28 | 10.88145 | -74.78739 | 106 ft | 86 kts | 38° |
| 2026-05-09 03:28 | 10.88853 | -74.78137 | 126 ft | 179 kts | 40° |
| 2026-05-09 03:28 | 10.89969 | -74.77171 | 539 ft | 236 kts | 40° |
| 2026-05-09 03:28 | 10.91095 | -74.75944 | 1854 ft | 237 kts | 59° |
| 2026-05-09 03:29 | 10.91579 | -74.74435 | 3556 ft | 215 kts | 82° |
| 2026-05-09 03:29 | 10.91696 | -74.72934 | 4677 ft | 216 kts | 84° |
| 2026-05-09 03:29 | 10.91852 | -74.71352 | 5357 ft | 236 kts | 84° |
| 2026-05-09 03:29 | 10.92021 | -74.69616 | 6093 ft | 256 kts | 84° |
| 2026-05-09 03:30 | 10.92201 | -74.67751 | 6948 ft | 271 kts | 84° |
| 2026-05-09 03:30 | 10.92386 | -74.65820 | 7993 ft | 277 kts | 84° |
| 2026-05-09 03:30 | 10.92573 | -74.63850 | 9045 ft | 282 kts | 84° |
| 2026-05-09 03:30 | 10.92762 | -74.61849 | 10076 ft | 287 kts | 84° |
| 2026-05-09 03:31 | 10.92954 | -74.59811 | 11020 ft | 296 kts | 84° |
| 2026-05-09 03:31 | 10.93157 | -74.57654 | 11600 ft | 317 kts | 84° |
| 2026-05-09 03:31 | 10.93379 | -74.55366 | 12207 ft | 335 kts | 84° |
| 2026-05-09 03:31 | 10.93607 | -74.52985 | 13116 ft | 342 kts | 84° |
| 2026-05-09 03:32 | 10.93839 | -74.50547 | 14091 ft | 347 kts | 84° |
| 2026-05-09 03:32 | 10.94071 | -74.48079 | 15050 ft | 353 kts | 84° |
| 2026-05-09 03:32 | 10.94304 | -74.45582 | 15991 ft | 358 kts | 84° |
| 2026-05-09 03:32 | 10.94539 | -74.43063 | 16901 ft | 363 kts | 84° |
| 2026-05-09 03:33 | 10.94779 | -74.40479 | 17803 ft | 368 kts | 84° |
| 2026-05-09 03:33 | 10.95020 | -74.37888 | 18671 ft | 373 kts | 84° |
| 2026-05-09 03:33 | 10.95266 | -74.35245 | 19523 ft | 378 kts | 84° |
| 2026-05-09 03:33 | 10.95514 | -74.32564 | 20349 ft | 382 kts | 84° |
| 2026-05-09 03:34 | 10.95681 | -74.30766 | 20881 ft | 386 kts | 84° |
| 2026-05-09 03:34 | 10.95936 | -74.28027 | 21657 ft | 390 kts | 84° |
| 2026-05-09 03:34 | 10.96351 | -74.25280 | 22400 ft | 395 kts | 78° |
| 2026-05-09 03:34 | 10.97072 | -74.22578 | 23111 ft | 399 kts | 72° |
| 2026-05-09 03:35 | 10.98054 | -74.19906 | 23802 ft | 404 kts | 68° |
| 2026-05-09 03:35 | 10.99164 | -74.17262 | 24467 ft | 408 kts | 66° |
| 2026-05-09 03:35 | 11.00303 | -74.14633 | 25099 ft | 412 kts | 66° |
| 2026-05-09 03:35 | 11.01461 | -74.11940 | 25715 ft | 416 kts | 66° |
| 2026-05-09 03:36 | 11.02638 | -74.09189 | 26315 ft | 420 kts | 66° |
| 2026-05-09 03:36 | 11.03789 | -74.06492 | 26880 ft | 423 kts | 66° |
| 2026-05-09 03:36 | 11.04966 | -74.03726 | 27581 ft | 423 kts | 66° |
| 2026-05-09 03:36 | 11.06140 | -74.00966 | 28380 ft | 419 kts | 66° |
| 2026-05-09 03:37 | 11.07281 | -73.98291 | 29044 ft | 419 kts | 66° |
| 2026-05-09 03:37 | 11.08456 | -73.95550 | 29652 ft | 420 kts | 66° |
| 2026-05-09 03:37 | 11.09612 | -73.92836 | 29935 ft | 422 kts | 66° |
| 2026-05-09 03:37 | 11.10793 | -73.90057 | 30000 ft | 431 kts | 66° |
| 2026-05-09 03:38 | 11.11996 | -73.87224 | 30006 ft | 442 kts | 66° |
| 2026-05-09 03:38 | 11.13224 | -73.84326 | 30007 ft | 451 kts | 66° |
| 2026-05-09 03:38 | 11.15769 | -73.78320 | 30007 ft | 468 kts | 66° |
| 2026-05-09 03:39 | 11.18353 | -73.72218 | 30006 ft | 474 kts | 66° |
| 2026-05-09 03:39 | 11.20993 | -73.66052 | 30006 ft | 473 kts | 66° |
| 2026-05-09 03:40 | 11.23625 | -73.59914 | 30006 ft | 473 kts | 66° |
| 2026-05-09 03:40 | 11.26251 | -73.53792 | 30006 ft | 473 kts | 66° |
| 2026-05-09 03:41 | 11.28875 | -73.47673 | 30006 ft | 473 kts | 66° |
| 2026-05-09 03:41 | 11.31526 | -73.41488 | 30006 ft | 473 kts | 66° |
| 2026-05-09 03:42 | 11.34140 | -73.35399 | 30006 ft | 473 kts | 66° |
| 2026-05-09 03:42 | 11.36787 | -73.29244 | 30006 ft | 473 kts | 66° |
| 2026-05-09 03:43 | 11.39423 | -73.23094 | 30006 ft | 473 kts | 66° |
| 2026-05-09 03:43 | 11.42060 | -73.16957 | 30006 ft | 473 kts | 66° |
| 2026-05-09 03:44 | 11.44686 | -73.10817 | 30006 ft | 473 kts | 66° |
| 2026-05-09 03:44 | 11.47326 | -73.04634 | 30006 ft | 473 kts | 66° |
| 2026-05-09 03:45 | 11.49919 | -72.98555 | 30006 ft | 473 kts | 66° |
| 2026-05-09 03:45 | 11.52555 | -72.92376 | 30006 ft | 473 kts | 66° |
| 2026-05-09 03:46 | 11.54822 | -72.86112 | 30006 ft | 473 kts | 72° |
| 2026-05-09 03:46 | 11.56876 | -72.79726 | 30006 ft | 473 kts | 71° |
| 2026-05-09 03:47 | 11.58982 | -72.73400 | 30006 ft | 473 kts | 71° |
| 2026-05-09 03:47 | 11.61116 | -72.67026 | 30006 ft | 473 kts | 71° |
| 2026-05-09 03:48 | 11.63239 | -72.60670 | 30006 ft | 473 kts | 71° |
| 2026-05-09 03:48 | 11.65339 | -72.54376 | 30006 ft | 473 kts | 71° |
| 2026-05-09 03:49 | 11.67467 | -72.48001 | 30006 ft | 473 kts | 71° |
| 2026-05-09 03:49 | 11.69577 | -72.41671 | 30006 ft | 473 kts | 71° |
| 2026-05-09 03:50 | 11.71691 | -72.35320 | 30006 ft | 473 kts | 71° |
| 2026-05-09 03:50 | 11.73814 | -72.28934 | 30006 ft | 473 kts | 71° |
| 2026-05-09 03:51 | 11.75919 | -72.22591 | 30006 ft | 473 kts | 71° |
| 2026-05-09 03:51 | 11.78036 | -72.16209 | 30006 ft | 473 kts | 71° |
| 2026-05-09 03:52 | 11.80133 | -72.09903 | 30006 ft | 473 kts | 71° |
| 2026-05-09 03:52 | 11.82256 | -72.03535 | 30006 ft | 473 kts | 71° |
| 2026-05-09 03:53 | 11.84364 | -71.97188 | 30006 ft | 473 kts | 71° |
| 2026-05-09 03:53 | 11.86479 | -71.90808 | 30006 ft | 473 kts | 71° |
| 2026-05-09 03:54 | 11.88573 | -71.84485 | 30006 ft | 473 kts | 71° |
| 2026-05-09 03:54 | 11.90678 | -71.78118 | 30006 ft | 473 kts | 71° |
| 2026-05-09 03:55 | 11.92776 | -71.71772 | 30006 ft | 472 kts | 71° |
| 2026-05-09 03:55 | 11.94868 | -71.65437 | 30006 ft | 472 kts | 71° |
| 2026-05-09 03:56 | 11.96965 | -71.59079 | 30006 ft | 472 kts | 71° |
| 2026-05-09 03:56 | 11.99057 | -71.52733 | 30006 ft | 472 kts | 71° |
| 2026-05-09 03:57 | 12.01155 | -71.46364 | 30006 ft | 472 kts | 71° |
| 2026-05-09 03:57 | 12.03246 | -71.40028 | 30006 ft | 472 kts | 71° |
| 2026-05-09 03:58 | 12.05335 | -71.33686 | 30006 ft | 472 kts | 71° |
| 2026-05-09 03:58 | 12.07425 | -71.27315 | 30006 ft | 472 kts | 71° |
| 2026-05-09 03:59 | 12.09503 | -71.20974 | 30006 ft | 472 kts | 71° |
| 2026-05-09 03:59 | 12.11582 | -71.14625 | 30006 ft | 472 kts | 71° |
| 2026-05-09 04:00 | 12.13695 | -71.08223 | 30006 ft | 472 kts | 70° |
| 2026-05-09 04:00 | 12.15900 | -71.01956 | 30006 ft | 472 kts | 70° |
| 2026-05-09 04:01 | 12.18092 | -70.95640 | 30006 ft | 472 kts | 70° |
| 2026-05-09 04:01 | 12.20294 | -70.89272 | 30006 ft | 472 kts | 70° |
| 2026-05-09 04:02 | 12.22465 | -70.82994 | 30006 ft | 472 kts | 70° |
| 2026-05-09 04:02 | 12.24586 | -70.76631 | 30006 ft | 472 kts | 71° |
| 2026-05-09 04:03 | 12.26682 | -70.70296 | 30006 ft | 472 kts | 71° |
| 2026-05-09 04:03 | 12.28741 | -70.64072 | 30002 ft | 442 kts | 71° |
| 2026-05-09 04:04 | 12.29700 | -70.61173 | 30003 ft | 427 kts | 71° |
| 2026-05-09 04:04 | 12.30644 | -70.58323 | 30005 ft | 421 kts | 71° |
| 2026-05-09 04:04 | 12.32525 | -70.52688 | 29673 ft | 415 kts | 71° |
| 2026-05-09 04:05 | 12.33437 | -70.49936 | 29259 ft | 409 kts | 71° |
| 2026-05-09 04:05 | 12.34348 | -70.47181 | 28705 ft | 407 kts | 71° |
| 2026-05-09 04:05 | 12.35251 | -70.44443 | 28160 ft | 404 kts | 71° |
| 2026-05-09 04:05 | 12.36147 | -70.41727 | 27619 ft | 401 kts | 71° |
| 2026-05-09 04:06 | 12.37035 | -70.39034 | 27084 ft | 398 kts | 71° |
| 2026-05-09 04:06 | 12.37917 | -70.36358 | 26552 ft | 395 kts | 71° |
| 2026-05-09 04:06 | 12.38360 | -70.35012 | 26285 ft | 394 kts | 71° |
| 2026-05-09 04:06 | 12.38483 | -70.34639 | 26211 ft | 393 kts | 71° |
| 2026-05-09 04:07 | 12.39355 | -70.31993 | 25683 ft | 390 kts | 71° |
| 2026-05-09 04:07 | 12.40175 | -70.29355 | 25159 ft | 387 kts | 75° |
| 2026-05-09 04:07 | 12.40692 | -70.26664 | 24642 ft | 384 kts | 82° |
| 2026-05-09 04:07 | 12.40889 | -70.23965 | 24118 ft | 382 kts | 88° |
| 2026-05-09 04:08 | 12.40906 | -70.21250 | 23594 ft | 379 kts | 91° |
| 2026-05-09 04:08 | 12.40843 | -70.18577 | 23081 ft | 377 kts | 91° |
| 2026-05-09 04:08 | 12.40773 | -70.15897 | 22567 ft | 374 kts | 91° |
| 2026-05-09 04:08 | 12.40730 | -70.14181 | 22239 ft | 372 kts | 91° |
| 2026-05-09 04:09 | 12.40666 | -70.11563 | 21737 ft | 369 kts | 91° |
| 2026-05-09 04:09 | 12.40605 | -70.08957 | 21237 ft | 367 kts | 91° |
| 2026-05-09 04:09 | 12.40544 | -70.06360 | 20735 ft | 364 kts | 91° |
| 2026-05-09 04:09 | 12.40484 | -70.03778 | 20234 ft | 362 kts | 91° |
| 2026-05-09 04:10 | 12.40425 | -70.01179 | 19728 ft | 359 kts | 91° |
| 2026-05-09 04:10 | 12.40368 | -69.98691 | 19238 ft | 357 kts | 91° |
| 2026-05-09 04:10 | 12.40310 | -69.96159 | 18737 ft | 354 kts | 91° |
| 2026-05-09 04:10 | 12.40252 | -69.93600 | 18226 ft | 352 kts | 91° |
| 2026-05-09 04:11 | 12.40208 | -69.91156 | 17737 ft | 349 kts | 91° |
| 2026-05-09 04:11 | 12.40159 | -69.88669 | 17234 ft | 347 kts | 91° |
| 2026-05-09 04:11 | 12.40105 | -69.86198 | 16730 ft | 344 kts | 91° |
| 2026-05-09 04:11 | 12.40050 | -69.83761 | 16229 ft | 342 kts | 91° |
| 2026-05-09 04:12 | 12.39995 | -69.81347 | 15730 ft | 340 kts | 91° |
| 2026-05-09 04:12 | 12.39938 | -69.78943 | 15230 ft | 337 kts | 91° |
| 2026-05-09 04:12 | 12.39882 | -69.76565 | 14729 ft | 335 kts | 91° |
| 2026-05-09 04:12 | 12.39825 | -69.74188 | 14225 ft | 333 kts | 91° |
| 2026-05-09 04:13 | 12.39769 | -69.71835 | 13723 ft | 331 kts | 91° |
| 2026-05-09 04:13 | 12.39713 | -69.69493 | 13219 ft | 328 kts | 91° |
| 2026-05-09 04:13 | 12.39657 | -69.67168 | 12714 ft | 326 kts | 91° |
| 2026-05-09 04:13 | 12.39602 | -69.64849 | 12205 ft | 324 kts | 91° |
| 2026-05-09 04:14 | 12.39541 | -69.62564 | 11698 ft | 322 kts | 92° |
| 2026-05-09 04:14 | 12.39203 | -69.60288 | 11189 ft | 319 kts | 103° |
| 2026-05-09 04:14 | 12.38590 | -69.58128 | 10677 ft | 317 kts | 108° |
| 2026-05-09 04:14 | 12.37875 | -69.55990 | 10174 ft | 315 kts | 110° |
| 2026-05-09 04:15 | 12.37144 | -69.53957 | 9993 ft | 302 kts | 110° |
| 2026-05-09 04:15 | 12.36410 | -69.51961 | 9984 ft | 283 kts | 112° |
| 2026-05-09 04:15 | 12.35489 | -69.50272 | 9765 ft | 274 kts | 124° |
| 2026-05-09 04:15 | 12.34374 | -69.48679 | 9256 ft | 277 kts | 126° |
| 2026-05-09 04:16 | 12.33227 | -69.47083 | 8841 ft | 276 kts | 126° |
| 2026-05-09 04:16 | 12.32094 | -69.45506 | 8443 ft | 274 kts | 126° |
| 2026-05-09 04:16 | 12.30967 | -69.43937 | 8053 ft | 272 kts | 126° |
| 2026-05-09 04:16 | 12.29852 | -69.42385 | 7669 ft | 270 kts | 126° |
| 2026-05-09 04:17 | 12.28747 | -69.40845 | 7293 ft | 267 kts | 126° |
| 2026-05-09 04:17 | 12.27663 | -69.39336 | 6928 ft | 265 kts | 126° |
| 2026-05-09 04:17 | 12.26589 | -69.37826 | 6570 ft | 262 kts | 124° |
| 2026-05-09 04:17 | 12.25934 | -69.36094 | 6202 ft | 259 kts | 97° |
| 2026-05-09 04:18 | 12.25948 | -69.34288 | 6082 ft | 247 kts | 87° |
| 2026-05-09 04:18 | 12.26014 | -69.32727 | 6048 ft | 234 kts | 90° |
| 2026-05-09 04:18 | 12.25971 | -69.31161 | 5975 ft | 216 kts | 92° |
| 2026-05-09 04:18 | 12.25844 | -69.29703 | 5862 ft | 196 kts | 98° |
| 2026-05-09 04:19 | 12.25617 | -69.28400 | 5702 ft | 176 kts | 101° |
| 2026-05-09 04:19 | 12.25393 | -69.27226 | 5459 ft | 165 kts | 101° |
| 2026-05-09 04:19 | 12.25166 | -69.26083 | 5079 ft | 163 kts | 101° |
| 2026-05-09 04:19 | 12.24952 | -69.25018 | 4916 ft | 144 kts | 102° |
| 2026-05-09 04:20 | 12.24756 | -69.24059 | 4638 ft | 135 kts | 102° |
| 2026-05-09 04:20 | 12.24563 | -69.23119 | 4276 ft | 134 kts | 102° |
| 2026-05-09 04:20 | 12.24370 | -69.22188 | 3919 ft | 133 kts | 102° |
| 2026-05-09 04:20 | 12.24177 | -69.21257 | 3559 ft | 132 kts | 102° |
| 2026-05-09 04:21 | 12.23986 | -69.20338 | 3203 ft | 132 kts | 102° |
| 2026-05-09 04:21 | 12.23797 | -69.19432 | 2882 ft | 131 kts | 102° |
| 2026-05-09 04:21 | 12.23539 | -69.18196 | 2731 ft | 128 kts | 102° |